Terminal Aerodrome Forecast
Issued by NWS Mt. Holly, NJ

Home | Current Version | Previous Version | Text Only | Print | Product List | Glossary On
Versions: 1 2 3 4 5 6 7 8 9 10 11 12
000
FTUS41 KPHI 041139
TAFACY
TAF
KACY 041139Z 0412/0512 20008KT P6SM BKN080
      TEMPO 0412/0413 6SM BR
     FM041500 23012G20KT P6SM BKN040
      TEMPO 0422/0424 3SM -TSRA OVC030CB
     FM050000 23007KT P6SM SCT030 BKN080
     FM050600 25004KT 3SM BR SCT003=

USA.gov is the U.S. government's official web portal to all federal, state and local government web resources and services.